Time;durP1;ratioP1;P1;durP2;ratioP2;P2;SDS_P1;SDS_P2;PMS_P1;PMS_P2;Temp;Humidity;BMP_temperature;BMP_pressure;BME280_temperature;BME280_humidity;BME280_pressure;Samples;Min_cycle;Max_cycle;Signal;HPM_P1;HPM_P2
2023/12/05 00:02:05;;;;;;;13.77;8.97;;;;;;;;;;5041370;28;20198;-72
2023/12/05 00:04:32;;;;;;;12.60;9.07;;;;;;;;;;5040388;28;20210;-72
2023/12/05 00:07:00;;;;;;;13.47;8.77;;;;;;;;;;5038039;28;20257;-72
2023/12/05 00:09:27;;;;;;;12.70;8.93;;;;;;;;;;5038588;28;20233;-73
2023/12/05 00:11:54;;;;;;;13.37;9.30;;;;;;;;;;5041793;28;20234;-71
2023/12/05 00:14:22;;;;;;;13.13;9.73;;;;;;;;;;5038152;28;20264;-73
2023/12/05 00:16:49;;;;;;;16.30;10.83;;;;;;;;;;5047400;28;20202;-71
2023/12/05 00:19:16;;;;;;;15.73;10.77;;;;;;;;;;5049088;28;20229;-71
2023/12/05 00:21:44;;;;;;;16.73;11.07;;;;;;;;;;5031350;28;20213;-71
2023/12/05 00:24:11;;;;;;;17.50;11.97;;;;;;;;;;5037704;28;20220;-72
2023/12/05 00:26:38;;;;;;;17.10;11.50;;;;;;;;;;5037600;28;20269;-71
2023/12/05 00:29:06;;;;;;;16.67;10.30;;;;;;;;;;5031908;28;20229;-73
2023/12/05 00:31:33;;;;;;;16.20;11.27;;;;;;;;;;5042658;28;20901;-72
2023/12/05 00:34:00;;;;;;;18.47;11.27;;;;;;;;;;5046016;28;20199;-70
2023/12/05 00:36:28;;;;;;;16.50;11.17;;;;;;;;;;5039651;28;20198;-72
2023/12/05 00:38:55;;;;;;;17.73;11.20;;;;;;;;;;5039826;28;20230;-71
2023/12/05 00:41:24;;;;;;;17.43;11.40;;;;;;;;;;5025706;28;20213;-76
2023/12/05 00:43:52;;;;;;;20.73;11.97;;;;;;;;;;5043744;28;20229;-72
2023/12/05 00:46:21;;;;;;;16.97;11.67;;;;;;;;;;5033011;28;20647;-71
2023/12/05 00:48:48;;;;;;;18.67;12.03;;;;;;;;;;5041248;28;20226;-73
2023/12/05 00:51:16;;;;;;;18.93;11.33;;;;;;;;;;5047316;28;20222;-71
2023/12/05 00:53:44;;;;;;;17.93;11.23;;;;;;;;;;5051443;28;20293;-74
2023/12/05 00:56:12;;;;;;;19.17;11.70;;;;;;;;;;5050463;28;20665;-73
2023/12/05 00:58:39;;;;;;;18.67;12.93;;;;;;;;;;5045689;28;20221;-74
2023/12/05 01:01:06;;;;;;;20.20;13.03;;;;;;;;;;5044027;28;20211;-73
2023/12/05 01:03:34;;;;;;;18.63;11.20;;;;;;;;;;5023044;28;20203;-71
2023/12/05 01:06:01;;;;;;;19.40;13.13;;;;;;;;;;5026662;28;20261;-75
2023/12/05 01:08:29;;;;;;;20.53;12.20;;;;;;;;;;5040594;28;20602;-71
2023/12/05 01:10:56;;;;;;;19.17;12.10;;;;;;;;;;5042760;28;20223;-73
2023/12/05 01:13:24;;;;;;;19.83;12.57;;;;;;;;;;5034583;28;20217;-73
2023/12/05 01:15:51;;;;;;;21.57;14.00;;;;;;;;;;5050643;28;20202;-73
2023/12/05 01:18:19;;;;;;;16.77;11.90;;;;;;;;;;5045985;28;20260;-73
2023/12/05 01:20:46;;;;;;;19.90;12.67;;;;;;;;;;5018729;28;20293;-71
2023/12/05 01:23:13;;;;;;;20.73;13.77;;;;;;;;;;5040266;28;20209;-73
2023/12/05 01:25:41;;;;;;;21.87;13.80;;;;;;;;;;5032287;28;20265;-74
2023/12/05 01:28:08;;;;;;;21.73;13.20;;;;;;;;;;5030412;28;20686;-73
2023/12/05 01:30:35;;;;;;;22.10;13.07;;;;;;;;;;5038643;28;20226;-73
2023/12/05 01:33:03;;;;;;;21.00;13.87;;;;;;;;;;5031490;28;20211;-73
2023/12/05 01:35:31;;;;;;;22.13;13.77;;;;;;;;;;5029534;28;20202;-72
2023/12/05 01:37:58;;;;;;;21.30;13.03;;;;;;;;;;5031795;28;20296;-71
2023/12/05 01:40:26;;;;;;;22.13;13.83;;;;;;;;;;5030307;28;20214;-73
2023/12/05 01:42:54;;;;;;;22.93;14.37;;;;;;;;;;5035797;28;20210;-73
2023/12/05 01:45:22;;;;;;;21.93;14.23;;;;;;;;;;5034578;28;20687;-77
2023/12/05 01:47:49;;;;;;;23.77;14.83;;;;;;;;;;5034294;28;20218;-72
2023/12/05 01:50:20;;;;;;;20.47;13.40;;;;;;;;;;5037885;28;20199;-72
2023/12/05 01:52:50;;;;;;;21.43;13.53;;;;;;;;;;5038776;28;20203;-73
2023/12/05 01:55:17;;;;;;;21.20;13.70;;;;;;;;;;5037929;28;20248;-72
2023/12/05 01:57:45;;;;;;;19.97;12.50;;;;;;;;;;5040962;28;20226;-73
2023/12/05 02:00:13;;;;;;;22.20;13.23;;;;;;;;;;5031540;28;20203;-73
2023/12/05 02:02:41;;;;;;;23.67;14.13;;;;;;;;;;5033508;28;20203;-72
2023/12/05 02:05:10;;;;;;;23.07;14.87;;;;;;;;;;5038469;28;20308;-71
2023/12/05 02:07:37;;;;;;;23.77;14.13;;;;;;;;;;5042634;28;20639;-74
2023/12/05 02:10:06;;;;;;;22.73;14.53;;;;;;;;;;5037716;28;20614;-72
2023/12/05 02:12:33;;;;;;;22.33;13.77;;;;;;;;;;5034158;28;20231;-71
2023/12/05 02:15:00;;;;;;;24.40;14.77;;;;;;;;;;5048393;28;20455;-73
2023/12/05 02:17:32;;;;;;;25.37;14.33;;;;;;;;;;5022329;28;20301;-74
2023/12/05 02:20:06;;;;;;;22.73;14.10;;;;;;;;;;5021358;28;20856;-71
2023/12/05 02:22:41;;;;;;;26.30;15.50;;;;;;;;;;5024220;28;20211;-72
2023/12/05 02:25:09;;;;;;;27.30;14.57;;;;;;;;;;5033576;28;20214;-74
2023/12/05 02:27:42;;;;;;;25.60;15.57;;;;;;;;;;5033273;28;20585;-74
2023/12/05 02:30:11;;;;;;;23.80;15.07;;;;;;;;;;5039489;28;20245;-72
2023/12/05 02:32:38;;;;;;;27.60;16.20;;;;;;;;;;5037576;28;20324;-72
2023/12/05 02:35:06;;;;;;;24.40;15.10;;;;;;;;;;5038085;28;20298;-72
2023/12/05 02:38:06;;;;;;;26.03;15.20;;;;;;;;;;5019787;28;20219;-73
2023/12/05 02:40:37;;;;;;;29.13;15.77;;;;;;;;;;4992571;28;20567;-72
2023/12/05 02:43:07;;;;;;;28.00;16.47;;;;;;;;;;5039707;28;20229;-73
2023/12/05 02:45:36;;;;;;;25.37;16.07;;;;;;;;;;5027524;28;20281;-72
2023/12/05 02:48:04;;;;;;;28.67;15.93;;;;;;;;;;5032653;28;20215;-73
2023/12/05 02:50:31;;;;;;;25.60;15.60;;;;;;;;;;5038061;28;20210;-71
2023/12/05 02:52:59;;;;;;;26.40;15.67;;;;;;;;;;5040504;28;20586;-71
2023/12/05 02:55:26;;;;;;;26.00;15.47;;;;;;;;;;5037764;28;20202;-71
2023/12/05 02:57:53;;;;;;;25.67;16.00;;;;;;;;;;5029815;28;20273;-71
2023/12/05 03:00:21;;;;;;;24.30;14.50;;;;;;;;;;5037963;28;20280;-74
2023/12/05 03:02:48;;;;;;;27.23;15.23;;;;;;;;;;5037685;28;20247;-74
2023/12/05 03:05:16;;;;;;;28.27;15.87;;;;;;;;;;5040580;28;20297;-71
2023/12/05 03:07:43;;;;;;;24.40;14.70;;;;;;;;;;5040379;28;20366;-75
2023/12/05 03:10:10;;;;;;;27.57;16.13;;;;;;;;;;5036123;28;20213;-71
2023/12/05 03:12:38;;;;;;;28.40;15.93;;;;;;;;;;5024262;28;20234;-72
2023/12/05 03:15:05;;;;;;;28.10;16.90;;;;;;;;;;5043356;28;20644;-72
2023/12/05 03:17:33;;;;;;;29.83;16.77;;;;;;;;;;5049685;28;20317;-72
2023/12/05 03:20:00;;;;;;;25.93;15.17;;;;;;;;;;5031613;28;20203;-71
2023/12/05 03:22:28;;;;;;;27.07;15.70;;;;;;;;;;5037260;28;20206;-72
2023/12/05 03:24:55;;;;;;;28.73;15.90;;;;;;;;;;5026516;28;20218;-72
2023/12/05 03:27:23;;;;;;;32.63;17.77;;;;;;;;;;5038149;28;20221;-73
2023/12/05 03:29:50;;;;;;;27.77;15.53;;;;;;;;;;5032872;28;20210;-74
2023/12/05 03:32:18;;;;;;;30.47;16.07;;;;;;;;;;5039476;28;20297;-72
2023/12/05 03:34:47;;;;;;;26.40;15.30;;;;;;;;;;5039612;28;20229;-69
2023/12/05 03:37:14;;;;;;;28.63;15.70;;;;;;;;;;5046932;28;20630;-73
2023/12/05 03:39:41;;;;;;;29.33;15.67;;;;;;;;;;5046067;28;20233;-75
2023/12/05 03:42:09;;;;;;;26.43;14.80;;;;;;;;;;5034600;28;20573;-71
2023/12/05 03:44:36;;;;;;;26.27;15.07;;;;;;;;;;5046382;28;20221;-73
2023/12/05 03:47:03;;;;;;;26.33;14.37;;;;;;;;;;5045037;28;20206;-71
2023/12/05 03:49:30;;;;;;;20.70;13.30;;;;;;;;;;5049992;28;20226;-70
2023/12/05 03:51:58;;;;;;;23.77;14.23;;;;;;;;;;5039468;28;20272;-73
2023/12/05 03:54:25;;;;;;;23.93;13.73;;;;;;;;;;5044946;28;20618;-70
2023/12/05 03:56:52;;;;;;;21.17;13.70;;;;;;;;;;5046930;28;20198;-73
2023/12/05 03:59:20;;;;;;;21.53;13.20;;;;;;;;;;5053858;28;20278;-73
2023/12/05 04:01:47;;;;;;;22.33;13.43;;;;;;;;;;5037703;28;20206;-72
2023/12/05 04:04:14;;;;;;;26.00;14.33;;;;;;;;;;5042750;28;20211;-72
2023/12/05 04:06:41;;;;;;;20.90;12.90;;;;;;;;;;5036498;28;20276;-74
2023/12/05 04:09:09;;;;;;;21.10;12.67;;;;;;;;;;5045674;28;20321;-71
2023/12/05 04:11:36;;;;;;;16.93;12.10;;;;;;;;;;5039111;28;20234;-72
2023/12/05 04:14:04;;;;;;;18.07;12.60;;;;;;;;;;5046720;28;20194;-72
2023/12/05 04:16:32;;;;;;;18.30;11.77;;;;;;;;;;5042449;28;20655;-74
2023/12/05 04:18:59;;;;;;;18.57;11.73;;;;;;;;;;5046096;28;20237;-72
2023/12/05 04:21:26;;;;;;;17.57;11.40;;;;;;;;;;5043927;28;20575;-73
2023/12/05 04:23:54;;;;;;;17.53;11.27;;;;;;;;;;5025426;28;20302;-73
2023/12/05 04:26:21;;;;;;;18.07;11.23;;;;;;;;;;5034059;28;20211;-74
2023/12/05 04:28:48;;;;;;;17.60;11.57;;;;;;;;;;5039560;28;20276;-71
2023/12/05 04:31:16;;;;;;;16.80;11.13;;;;;;;;;;5044912;28;20210;-72
2023/12/05 04:33:43;;;;;;;18.70;12.17;;;;;;;;;;5045604;28;20411;-71
2023/12/05 04:36:11;;;;;;;17.73;11.37;;;;;;;;;;5032464;28;20682;-71
2023/12/05 04:38:39;;;;;;;17.23;11.93;;;;;;;;;;5042143;28;20238;-74
2023/12/05 04:41:06;;;;;;;20.10;12.37;;;;;;;;;;5034077;28;20776;-70
2023/12/05 04:43:33;;;;;;;17.47;10.60;;;;;;;;;;5050625;28;20689;-72
2023/12/05 04:46:01;;;;;;;15.93;11.20;;;;;;;;;;5039754;28;20257;-75
2023/12/05 04:48:28;;;;;;;19.57;12.73;;;;;;;;;;5042466;28;20572;-71
2023/12/05 04:50:55;;;;;;;17.80;11.33;;;;;;;;;;5026345;28;20209;-75
2023/12/05 04:53:23;;;;;;;17.57;11.73;;;;;;;;;;5017327;28;20238;-76
2023/12/05 04:55:50;;;;;;;17.37;11.80;;;;;;;;;;5046647;28;20256;-75
2023/12/05 04:58:17;;;;;;;16.80;12.00;;;;;;;;;;5044174;28;20233;-71
2023/12/05 05:00:44;;;;;;;18.70;12.80;;;;;;;;;;5028433;28;20666;-72
2023/12/05 05:03:12;;;;;;;20.63;12.63;;;;;;;;;;5032885;28;20296;-74
2023/12/05 05:05:39;;;;;;;20.60;12.60;;;;;;;;;;5046464;28;20710;-72
2023/12/05 05:08:07;;;;;;;19.13;12.57;;;;;;;;;;5039272;28;20297;-70
2023/12/05 05:10:35;;;;;;;20.80;13.87;;;;;;;;;;5016965;28;20609;-73
2023/12/05 05:13:02;;;;;;;22.70;14.23;;;;;;;;;;5039717;28;20295;-71
2023/12/05 05:15:30;;;;;;;21.13;13.20;;;;;;;;;;5029177;28;20572;-72
2023/12/05 05:17:57;;;;;;;20.27;13.07;;;;;;;;;;5021789;28;20589;-75
2023/12/05 05:20:25;;;;;;;22.93;13.67;;;;;;;;;;5039170;28;20205;-72
2023/12/05 05:22:52;;;;;;;23.13;14.83;;;;;;;;;;5018428;28;20215;-73
2023/12/05 05:25:19;;;;;;;24.27;15.57;;;;;;;;;;5032776;28;20226;-74
2023/12/05 05:27:47;;;;;;;23.87;16.00;;;;;;;;;;5030836;28;20677;-74
2023/12/05 05:30:16;;;;;;;21.93;13.90;;;;;;;;;;5033791;28;20202;-71
2023/12/05 05:32:47;;;;;;;22.13;14.40;;;;;;;;;;5035998;28;20262;-72
2023/12/05 05:35:14;;;;;;;23.13;12.90;;;;;;;;;;5035392;28;20326;-71
2023/12/05 05:37:42;;;;;;;16.90;11.53;;;;;;;;;;5023111;28;20693;-73
2023/12/05 05:40:09;;;;;;;18.17;11.60;;;;;;;;;;5038588;28;20198;-71
2023/12/05 05:42:37;;;;;;;19.47;12.87;;;;;;;;;;5035761;28;20213;-71
2023/12/05 05:45:05;;;;;;;26.33;14.80;;;;;;;;;;5046963;28;20233;-70
2023/12/05 05:47:32;;;;;;;23.47;18.00;;;;;;;;;;5046860;28;20237;-74
2023/12/05 05:49:59;;;;;;;22.23;15.33;;;;;;;;;;5039678;28;20245;-70
2023/12/05 05:52:31;;;;;;;21.00;13.27;;;;;;;;;;5041747;28;20230;-72
2023/12/05 05:54:59;;;;;;;19.13;12.23;;;;;;;;;;5045850;28;20649;-72
2023/12/05 05:57:28;;;;;;;19.23;12.27;;;;;;;;;;5032475;28;20641;-73
2023/12/05 05:59:55;;;;;;;19.37;13.03;;;;;;;;;;5026304;28;20260;-71
2023/12/05 06:02:23;;;;;;;21.90;13.33;;;;;;;;;;5041442;28;20210;-74
2023/12/05 06:04:50;;;;;;;21.83;13.63;;;;;;;;;;5049215;28;20209;-73
2023/12/05 06:07:18;;;;;;;21.43;13.50;;;;;;;;;;5040889;28;20332;-70
2023/12/05 06:09:46;;;;;;;20.37;14.10;;;;;;;;;;5025070;28;20621;-72
2023/12/05 06:12:13;;;;;;;25.17;15.10;;;;;;;;;;5044961;28;20607;-71
2023/12/05 06:14:40;;;;;;;20.90;13.27;;;;;;;;;;5023426;28;20655;-74
2023/12/05 06:17:08;;;;;;;22.47;14.67;;;;;;;;;;5033775;28;20205;-71
2023/12/05 06:19:35;;;;;;;20.50;13.40;;;;;;;;;;5023242;28;20781;-73
2023/12/05 06:22:03;;;;;;;22.17;14.10;;;;;;;;;;5036037;28;20218;-72
2023/12/05 06:24:30;;;;;;;24.17;14.77;;;;;;;;;;5037621;28;20209;-70
2023/12/05 06:26:57;;;;;;;26.90;14.90;;;;;;;;;;5044939;28;20883;-71
2023/12/05 06:29:25;;;;;;;22.97;14.20;;;;;;;;;;5041194;28;20638;-73
2023/12/05 06:31:52;;;;;;;19.63;13.93;;;;;;;;;;5039968;28;20685;-70
2023/12/05 06:34:19;;;;;;;21.20;14.10;;;;;;;;;;5035502;28;20210;-71
2023/12/05 06:36:47;;;;;;;24.33;15.20;;;;;;;;;;5027941;28;20210;-71
2023/12/05 06:39:14;;;;;;;23.17;14.47;;;;;;;;;;5035562;28;23589;-71
2023/12/05 06:41:43;;;;;;;23.43;14.57;;;;;;;;;;5017751;28;20238;-76
2023/12/05 06:44:12;;;;;;;23.60;13.60;;;;;;;;;;5044474;28;20198;-73
2023/12/05 06:46:41;;;;;;;19.87;13.70;;;;;;;;;;5027098;28;24289;-75
2023/12/05 06:49:10;;;;;;;19.80;12.93;;;;;;;;;;5039493;28;20245;-71
2023/12/05 06:51:40;;;;;;;21.80;13.43;;;;;;;;;;5042691;28;20203;-73
2023/12/05 06:54:08;;;;;;;22.10;13.33;;;;;;;;;;5030218;28;24420;-73
2023/12/05 06:56:36;;;;;;;22.33;13.03;;;;;;;;;;5033378;28;24906;-72
2023/12/05 06:59:04;;;;;;;21.63;12.13;;;;;;;;;;5039114;28;20227;-73
2023/12/05 07:01:32;;;;;;;22.57;13.10;;;;;;;;;;5019656;28;20203;-72
2023/12/05 07:04:01;;;;;;;20.80;12.87;;;;;;;;;;5049079;28;20662;-72
2023/12/05 07:06:29;;;;;;;21.80;12.63;;;;;;;;;;5039629;28;20625;-73
2023/12/05 07:08:56;;;;;;;20.87;13.10;;;;;;;;;;5020322;28;20288;-73
2023/12/05 07:11:27;;;;;;;19.63;12.07;;;;;;;;;;5041980;28;20217;-76
2023/12/05 07:13:55;;;;;;;20.73;12.67;;;;;;;;;;5047366;28;20316;-70
2023/12/05 07:16:22;;;;;;;21.67;11.93;;;;;;;;;;5033298;28;20210;-72
2023/12/05 07:18:50;;;;;;;21.43;12.10;;;;;;;;;;5034066;28;20240;-71
2023/12/05 07:21:17;;;;;;;20.43;12.30;;;;;;;;;;5030322;28;20203;-73
2023/12/05 07:23:45;;;;;;;21.37;12.50;;;;;;;;;;5035664;28;20375;-72
2023/12/05 07:26:25;;;;;;;22.67;12.63;;;;;;;;;;5028351;28;20230;-70
2023/12/05 07:28:52;;;;;;;21.00;12.17;;;;;;;;;;5043142;28;20690;-74
2023/12/05 07:31:20;;;;;;;23.80;12.77;;;;;;;;;;5043921;28;20699;-71
2023/12/05 07:33:48;;;;;;;20.27;11.83;;;;;;;;;;5036159;28;20230;-73
2023/12/05 07:36:18;;;;;;;21.77;13.50;;;;;;;;;;5045736;28;20202;-71
2023/12/05 07:38:45;;;;;;;20.10;12.27;;;;;;;;;;5023455;28;20233;-71
2023/12/05 07:41:19;;;;;;;24.60;14.00;;;;;;;;;;5031429;28;20203;-72
2023/12/05 07:43:49;;;;;;;24.00;14.73;;;;;;;;;;5013697;28;20198;-75
2023/12/05 07:46:17;;;;;;;22.67;12.80;;;;;;;;;;5036554;28;20210;-75
2023/12/05 07:48:44;;;;;;;25.40;14.27;;;;;;;;;;5034422;28;20627;-73
2023/12/05 07:51:18;;;;;;;21.37;12.97;;;;;;;;;;5039607;28;20300;-71
2023/12/05 07:53:48;;;;;;;20.97;12.33;;;;;;;;;;5017720;28;20339;-72
2023/12/05 07:56:15;;;;;;;21.77;13.60;;;;;;;;;;5038693;28;20230;-71
2023/12/05 07:58:43;;;;;;;16.77;11.53;;;;;;;;;;5043610;28;20229;-74
2023/12/05 08:01:10;;;;;;;19.10;10.93;;;;;;;;;;5042377;28;20785;-70
2023/12/05 08:03:37;;;;;;;18.57;11.33;;;;;;;;;;5041229;28;20205;-70
2023/12/05 08:06:05;;;;;;;19.93;12.63;;;;;;;;;;5033456;28;20211;-73
2023/12/05 08:08:36;;;;;;;23.10;13.57;;;;;;;;;;5014433;28;20702;-70
2023/12/05 08:11:04;;;;;;;19.63;11.87;;;;;;;;;;5025337;28;21471;-70
2023/12/05 08:13:31;;;;;;;20.13;11.47;;;;;;;;;;5038838;28;20218;-73
2023/12/05 08:15:59;;;;;;;18.20;11.03;;;;;;;;;;5041522;28;20235;-72
2023/12/05 08:18:26;;;;;;;19.57;11.83;;;;;;;;;;5043428;28;20226;-72
2023/12/05 08:20:54;;;;;;;23.73;12.37;;;;;;;;;;5050170;28;20211;-73
2023/12/05 08:23:21;;;;;;;20.73;10.97;;;;;;;;;;5023602;28;20218;-73
2023/12/05 08:25:48;;;;;;;20.17;11.87;;;;;;;;;;5037392;28;20218;-69
2023/12/05 08:28:16;;;;;;;21.33;11.77;;;;;;;;;;5037794;28;20646;-74
2023/12/05 08:30:43;;;;;;;20.10;11.23;;;;;;;;;;5048792;28;20214;-71
2023/12/05 08:33:10;;;;;;;20.37;11.50;;;;;;;;;;5041453;28;20226;-71
2023/12/05 08:35:38;;;;;;;24.43;12.07;;;;;;;;;;5049256;28;20201;-72
2023/12/05 08:38:05;;;;;;;26.73;13.70;;;;;;;;;;5030327;28;24112;-72
2023/12/05 08:40:32;;;;;;;24.70;12.40;;;;;;;;;;5034821;28;20200;-72
2023/12/05 08:43:00;;;;;;;19.03;11.50;;;;;;;;;;5046298;28;20202;-72
2023/12/05 08:45:27;;;;;;;21.47;11.57;;;;;;;;;;5045845;28;20210;-72
2023/12/05 08:47:55;;;;;;;106.03;70.20;;;;;;;;;;5027212;28;20226;-72
2023/12/05 08:50:23;;;;;;;20.80;12.23;;;;;;;;;;5033963;28;20249;-70
2023/12/05 08:52:51;;;;;;;20.23;12.63;;;;;;;;;;5039004;28;20226;-72
2023/12/05 08:55:18;;;;;;;22.33;12.43;;;;;;;;;;5042277;28;20405;-72
2023/12/05 08:57:45;;;;;;;17.40;11.40;;;;;;;;;;5018789;28;20242;-72
2023/12/05 09:00:13;;;;;;;17.40;10.70;;;;;;;;;;5037069;28;20214;-71
2023/12/05 09:02:40;;;;;;;15.97;10.37;;;;;;;;;;5036046;28;20212;-72
2023/12/05 09:05:07;;;;;;;20.20;11.20;;;;;;;;;;5046384;28;20213;-72
2023/12/05 09:07:35;;;;;;;21.17;11.13;;;;;;;;;;5036371;28;20271;-72
2023/12/05 09:10:03;;;;;;;15.17;10.03;;;;;;;;;;5027037;28;20658;-71
2023/12/05 09:12:32;;;;;;;16.17;10.23;;;;;;;;;;5033757;28;20270;-72
2023/12/05 09:15:00;;;;;;;14.03;9.30;;;;;;;;;;5047174;28;20216;-72
2023/12/05 09:17:28;;;;;;;14.40;9.40;;;;;;;;;;5037060;28;20206;-72
2023/12/05 09:19:56;;;;;;;13.43;9.57;;;;;;;;;;5038410;28;20216;-71
2023/12/05 09:22:24;;;;;;;13.13;8.90;;;;;;;;;;5041317;28;20561;-72
2023/12/05 09:24:51;;;;;;;10.97;8.23;;;;;;;;;;5037167;28;24919;-71
2023/12/05 09:27:19;;;;;;;14.17;9.43;;;;;;;;;;5036849;28;20218;-72
2023/12/05 09:29:47;;;;;;;15.03;9.10;;;;;;;;;;5047584;28;20208;-71
2023/12/05 09:32:17;;;;;;;14.87;8.13;;;;;;;;;;5019324;28;20741;-70
2023/12/05 09:34:46;;;;;;;12.10;8.60;;;;;;;;;;5050338;28;20210;-71
2023/12/05 09:37:16;;;;;;;10.73;7.97;;;;;;;;;;5036223;28;20639;-71
2023/12/05 09:39:43;;;;;;;9.47;7.23;;;;;;;;;;5032417;28;20335;-72
2023/12/05 09:42:13;;;;;;;10.77;8.37;;;;;;;;;;5042152;28;20724;-71
2023/12/05 09:44:47;;;;;;;12.80;8.40;;;;;;;;;;5046743;28;20202;-71
2023/12/05 09:47:21;;;;;;;9.97;7.40;;;;;;;;;;5046662;28;20558;-70
2023/12/05 09:49:49;;;;;;;11.80;7.57;;;;;;;;;;5033696;28;20294;-70
2023/12/05 09:52:18;;;;;;;10.70;7.47;;;;;;;;;;5027337;28;20206;-72
2023/12/05 09:54:45;;;;;;;10.10;7.47;;;;;;;;;;5048911;28;20234;-71
2023/12/05 09:57:13;;;;;;;11.13;7.10;;;;;;;;;;5053967;28;20697;-72
2023/12/05 09:59:41;;;;;;;9.73;7.83;;;;;;;;;;5036199;28;20226;-71
2023/12/05 10:02:08;;;;;;;10.57;7.27;;;;;;;;;;5036095;28;20206;-71
2023/12/05 10:04:43;;;;;;;8.87;6.90;;;;;;;;;;5022464;28;20217;-70
2023/12/05 10:07:11;;;;;;;10.53;7.60;;;;;;;;;;5018810;28;20202;-72
2023/12/05 10:09:43;;;;;;;8.60;6.33;;;;;;;;;;5043095;28;20298;-71
2023/12/05 10:12:11;;;;;;;9.83;6.93;;;;;;;;;;5042634;28;20661;-71
2023/12/05 10:14:39;;;;;;;9.03;6.20;;;;;;;;;;5045624;28;20230;-71
2023/12/05 10:17:07;;;;;;;7.97;5.73;;;;;;;;;;5042489;28;20257;-71
2023/12/05 10:19:35;;;;;;;6.17;5.20;;;;;;;;;;5027439;28;20596;-70
2023/12/05 10:22:03;;;;;;;5.70;5.10;;;;;;;;;;5031090;28;20279;-69
2023/12/05 10:24:39;;;;;;;4.80;4.30;;;;;;;;;;5036988;28;20237;-71
2023/12/05 10:27:07;;;;;;;5.47;4.47;;;;;;;;;;5034895;28;20217;-71
2023/12/05 10:29:39;;;;;;;5.07;3.67;;;;;;;;;;5037809;28;20228;-71
2023/12/05 10:32:08;;;;;;;5.40;3.90;;;;;;;;;;5049123;28;20209;-71
2023/12/05 10:34:51;;;;;;;4.30;2.77;;;;;;;;;;5041704;28;20268;-72
2023/12/05 10:37:21;;;;;;;3.20;2.90;;;;;;;;;;5038457;28;20298;-71
2023/12/05 10:39:52;;;;;;;4.47;2.80;;;;;;;;;;5037690;28;20207;-70
2023/12/05 10:42:21;;;;;;;3.90;3.10;;;;;;;;;;5042364;28;20288;-71
2023/12/05 10:44:48;;;;;;;3.33;2.90;;;;;;;;;;5045140;28;20205;-75
2023/12/05 10:47:16;;;;;;;3.07;2.70;;;;;;;;;;5025625;28;20264;-71
2023/12/05 10:49:48;;;;;;;2.50;2.30;;;;;;;;;;5038731;28;20210;-71
2023/12/05 10:52:16;;;;;;;3.47;2.60;;;;;;;;;;5053627;28;20233;-72
2023/12/05 10:54:46;;;;;;;2.90;2.60;;;;;;;;;;5037773;28;20230;-72
2023/12/05 10:57:13;;;;;;;2.87;2.53;;;;;;;;;;5040487;28;20653;-75
2023/12/05 10:59:41;;;;;;;3.17;2.80;;;;;;;;;;5040485;28;20207;-71
2023/12/05 11:02:13;;;;;;;3.07;2.70;;;;;;;;;;5053511;28;20230;-70
2023/12/05 11:04:41;;;;;;;3.13;2.93;;;;;;;;;;5030088;28;20241;-72
2023/12/05 11:07:09;;;;;;;3.23;2.80;;;;;;;;;;5062557;28;20198;-72
2023/12/05 11:09:41;;;;;;;3.20;2.90;;;;;;;;;;5041699;28;20232;-68
2023/12/05 11:12:09;;;;;;;4.07;3.03;;;;;;;;;;5039053;28;20297;-74
2023/12/05 11:14:43;;;;;;;3.30;3.00;;;;;;;;;;5038832;28;20288;-73
2023/12/05 11:17:13;;;;;;;3.90;3.17;;;;;;;;;;5041817;28;20269;-68
2023/12/05 11:19:59;;;;;;;6.07;3.90;;;;;;;;;;5022547;28;20297;-69
2023/12/05 11:22:34;;;;;;;5.47;3.87;;;;;;;;;;5019268;28;20682;-69
2023/12/05 11:25:17;;;;;;;4.47;3.80;;;;;;;;;;5030886;28;20213;-70
2023/12/05 11:27:44;;;;;;;4.33;3.60;;;;;;;;;;5033333;28;20229;-75
2023/12/05 11:30:38;;;;;;;6.57;4.83;;;;;;;;;;5039780;28;20301;-69
2023/12/05 11:33:26;;;;;;;6.20;4.53;;;;;;;;;;5036118;28;20211;-71
2023/12/05 11:35:59;;;;;;;5.03;4.37;;;;;;;;;;5041194;28;20201;-67
2023/12/05 11:38:28;;;;;;;6.90;4.87;;;;;;;;;;5036878;28;20291;-71
2023/12/05 11:41:17;;;;;;;6.63;5.47;;;;;;;;;;5049650;28;20198;-70
2023/12/05 11:44:04;;;;;;;6.10;5.03;;;;;;;;;;5048036;28;20215;-69
2023/12/05 11:46:35;;;;;;;6.50;5.63;;;;;;;;;;5051302;28;20283;-71
2023/12/05 11:49:03;;;;;;;7.97;5.80;;;;;;;;;;5052352;28;20235;-71
2023/12/05 11:51:31;;;;;;;6.83;5.00;;;;;;;;;;5050735;28;20553;-70
2023/12/05 11:54:02;;;;;;;6.70;5.07;;;;;;;;;;5051081;28;20677;-70
2023/12/05 11:56:30;;;;;;;5.73;5.13;;;;;;;;;;5040243;28;20213;-69
2023/12/05 11:59:19;;;;;;;6.27;5.20;;;;;;;;;;5020966;28;20219;-70
2023/12/05 12:01:50;;;;;;;7.47;5.80;;;;;;;;;;5035043;28;20197;-71
2023/12/05 12:04:22;;;;;;;7.53;5.70;;;;;;;;;;5030267;28;20207;-70
2023/12/05 12:06:50;;;;;;;7.17;5.57;;;;;;;;;;5035980;28;20586;-70
2023/12/05 12:09:18;;;;;;;6.77;6.07;;;;;;;;;;5035627;28;20232;-71
2023/12/05 12:11:45;;;;;;;6.17;5.57;;;;;;;;;;5033038;28;20222;-70
2023/12/05 12:14:16;;;;;;;6.70;5.40;;;;;;;;;;5038590;28;20279;-69
2023/12/05 12:16:44;;;;;;;7.03;6.10;;;;;;;;;;5037852;28;20288;-70
2023/12/05 12:19:12;;;;;;;6.77;5.67;;;;;;;;;;5040068;28;20223;-69
2023/12/05 12:21:40;;;;;;;7.17;6.07;;;;;;;;;;5033749;28;20689;-70
2023/12/05 12:24:08;;;;;;;8.07;6.77;;;;;;;;;;5035790;28;20683;-69
2023/12/05 12:26:35;;;;;;;8.33;6.13;;;;;;;;;;5020027;28;20208;-69
2023/12/05 12:29:06;;;;;;;6.83;6.13;;;;;;;;;;5045693;28;20227;-68
2023/12/05 12:31:35;;;;;;;7.30;6.47;;;;;;;;;;5038648;28;20202;-69
2023/12/05 12:34:03;;;;;;;6.77;5.93;;;;;;;;;;5025353;28;20227;-70
2023/12/05 12:36:31;;;;;;;7.10;6.10;;;;;;;;;;5037753;28;20293;-71
2023/12/05 12:38:59;;;;;;;7.50;6.60;;;;;;;;;;5033084;28;20452;-70
2023/12/05 12:41:27;;;;;;;7.30;6.60;;;;;;;;;;5036810;28;20583;-70
2023/12/05 12:43:54;;;;;;;9.23;6.77;;;;;;;;;;5020638;28;20626;-69
2023/12/05 12:46:22;;;;;;;6.80;6.10;;;;;;;;;;5019062;28;21673;-69
2023/12/05 12:48:49;;;;;;;6.90;6.17;;;;;;;;;;5031065;28;20588;-68
2023/12/05 12:51:16;;;;;;;6.57;5.70;;;;;;;;;;5033049;28;20314;-69
2023/12/05 12:53:46;;;;;;;7.30;6.00;;;;;;;;;;5033248;28;20226;-70
2023/12/05 12:56:13;;;;;;;7.50;6.00;;;;;;;;;;5031748;28;20193;-69
2023/12/05 12:58:42;;;;;;;6.83;6.03;;;;;;;;;;5032586;28;20235;-70
2023/12/05 13:01:13;;;;;;;8.73;6.07;;;;;;;;;;5033382;28;20229;-70
2023/12/05 13:03:46;;;;;;;6.13;5.30;;;;;;;;;;5010425;28;20578;-70
2023/12/05 13:06:14;;;;;;;7.30;5.40;;;;;;;;;;5029442;28;20237;-70
2023/12/05 13:08:41;;;;;;;6.30;5.70;;;;;;;;;;5031308;28;20230;-71
2023/12/05 13:11:08;;;;;;;6.13;5.50;;;;;;;;;;5049365;28;20244;-70
2023/12/05 13:13:36;;;;;;;8.37;6.07;;;;;;;;;;5040754;28;24263;-71
2023/12/05 13:16:04;;;;;;;7.60;6.17;;;;;;;;;;5029582;28;20643;-70
2023/12/05 13:18:52;;;;;;;7.97;5.57;;;;;;;;;;5039404;28;20225;-68
2023/12/05 13:21:30;;;;;;;7.13;5.67;;;;;;;;;;5039666;28;20649;-70
2023/12/05 13:23:58;;;;;;;6.93;5.10;;;;;;;;;;5035213;28;20203;-70
2023/12/05 13:26:25;;;;;;;6.97;5.63;;;;;;;;;;5043055;28;20974;-70
2023/12/05 13:28:52;;;;;;;6.37;5.27;;;;;;;;;;5044743;28;20243;-69
2023/12/05 13:31:20;;;;;;;6.93;5.37;;;;;;;;;;5046181;28;20214;-70
2023/12/05 13:33:47;;;;;;;6.07;5.47;;;;;;;;;;5043531;28;20740;-69
2023/12/05 13:36:16;;;;;;;7.23;5.37;;;;;;;;;;5040547;28;20682;-70
2023/12/05 13:38:43;;;;;;;8.13;6.20;;;;;;;;;;5040498;28;20226;-71
2023/12/05 13:41:11;;;;;;;8.80;5.80;;;;;;;;;;5040099;28;20269;-69
2023/12/05 13:43:39;;;;;;;6.17;5.53;;;;;;;;;;5041851;28;20225;-70
2023/12/05 13:46:06;;;;;;;6.30;5.13;;;;;;;;;;5046907;28;20647;-70
2023/12/05 13:48:33;;;;;;;7.70;5.67;;;;;;;;;;5043657;28;20221;-70
2023/12/05 13:51:01;;;;;;;5.43;4.30;;;;;;;;;;5052507;28;20643;-70
2023/12/05 13:53:28;;;;;;;5.20;4.70;;;;;;;;;;5047332;28;20630;-69
2023/12/05 13:55:56;;;;;;;6.70;5.47;;;;;;;;;;5040282;28;20895;-70
2023/12/05 13:58:23;;;;;;;6.83;4.60;;;;;;;;;;5031152;28;20689;-69
2023/12/05 14:00:50;;;;;;;5.63;4.97;;;;;;;;;;5035335;28;20205;-71
2023/12/05 14:03:18;;;;;;;5.60;5.10;;;;;;;;;;5035000;28;20709;-70
2023/12/05 14:05:47;;;;;;;5.57;5.07;;;;;;;;;;5020216;28;20229;-69
2023/12/05 14:08:14;;;;;;;8.20;5.07;;;;;;;;;;5043232;28;20304;-69
2023/12/05 14:10:42;;;;;;;5.27;4.77;;;;;;;;;;5046329;28;20249;-70
2023/12/05 14:13:09;;;;;;;5.70;4.97;;;;;;;;;;5048995;28;20213;-70
2023/12/05 14:15:37;;;;;;;5.40;4.90;;;;;;;;;;5044819;28;20239;-70
2023/12/05 14:18:07;;;;;;;6.57;5.10;;;;;;;;;;5060927;28;20288;-70
2023/12/05 14:20:35;;;;;;;7.10;6.40;;;;;;;;;;5046789;28;20206;-70
2023/12/05 14:23:02;;;;;;;5.70;5.07;;;;;;;;;;5045644;28;20203;-70
2023/12/05 14:25:29;;;;;;;5.83;5.10;;;;;;;;;;5037035;28;20222;-71
2023/12/05 14:27:57;;;;;;;7.53;5.67;;;;;;;;;;5058761;28;20266;-69
2023/12/05 14:30:24;;;;;;;5.73;4.90;;;;;;;;;;5055355;28;20578;-71
2023/12/05 14:32:52;;;;;;;7.10;5.20;;;;;;;;;;5043230;28;20234;-70
2023/12/05 14:35:20;;;;;;;6.77;5.33;;;;;;;;;;5031875;28;20665;-70